sensor_id;sensor_type;location;lat;lon;timestamp;temperature;humidity
19180;DHT22;9722;48.754;8.868;2023-09-30T00:00:59;16.00;98.00
19180;DHT22;9722;48.754;8.868;2023-09-30T00:04:20;16.00;98.00
19180;DHT22;9722;48.754;8.868;2023-09-30T00:07:40;16.10;97.90
19180;DHT22;9722;48.754;8.868;2023-09-30T00:11:01;16.10;97.70
19180;DHT22;9722;48.754;8.868;2023-09-30T00:14:21;16.20;97.50
19180;DHT22;9722;48.754;8.868;2023-09-30T00:17:42;16.10;97.40
19180;DHT22;9722;48.754;8.868;2023-09-30T00:21:02;16.10;97.40
19180;DHT22;9722;48.754;8.868;2023-09-30T00:24:23;16.10;97.40
19180;DHT22;9722;48.754;8.868;2023-09-30T00:27:43;16.10;97.40
19180;DHT22;9722;48.754;8.868;2023-09-30T00:31:07;16.00;97.50
19180;DHT22;9722;48.754;8.868;2023-09-30T00:34:34;16.00;97.60
19180;DHT22;9722;48.754;8.868;2023-09-30T00:37:55;16.00;97.70
19180;DHT22;9722;48.754;8.868;2023-09-30T00:41:15;16.00;97.80
19180;DHT22;9722;48.754;8.868;2023-09-30T00:44:36;16.00;97.80
19180;DHT22;9722;48.754;8.868;2023-09-30T00:47:56;16.10;97.80
19180;DHT22;9722;48.754;8.868;2023-09-30T00:51:17;16.20;97.80
19180;DHT22;9722;48.754;8.868;2023-09-30T00:54:39;16.20;97.90
19180;DHT22;9722;48.754;8.868;2023-09-30T00:57:59;16.30;98.10
19180;DHT22;9722;48.754;8.868;2023-09-30T01:01:21;16.40;98.10
19180;DHT22;9722;48.754;8.868;2023-09-30T01:04:42;16.40;98.20
19180;DHT22;9722;48.754;8.868;2023-09-30T01:08:03;16.50;98.30
19180;DHT22;9722;48.754;8.868;2023-09-30T01:11:24;16.50;98.30
19180;DHT22;9722;48.754;8.868;2023-09-30T01:14:46;16.50;98.40
19180;DHT22;9722;48.754;8.868;2023-09-30T01:18:06;16.60;98.50
19180;DHT22;9722;48.754;8.868;2023-09-30T01:21:27;16.60;98.50
19180;DHT22;9722;48.754;8.868;2023-09-30T01:24:48;16.50;98.50
19180;DHT22;9722;48.754;8.868;2023-09-30T01:28:08;16.40;98.50
19180;DHT22;9722;48.754;8.868;2023-09-30T01:31:29;16.30;98.50
19180;DHT22;9722;48.754;8.868;2023-09-30T01:34:49;16.20;98.60
19180;DHT22;9722;48.754;8.868;2023-09-30T01:38:10;16.20;98.80
19180;DHT22;9722;48.754;8.868;2023-09-30T01:41:30;16.10;98.70
19180;DHT22;9722;48.754;8.868;2023-09-30T01:44:51;16.10;98.90
19180;DHT22;9722;48.754;8.868;2023-09-30T01:48:12;16.00;98.90
19180;DHT22;9722;48.754;8.868;2023-09-30T01:51:32;16.00;98.90
19180;DHT22;9722;48.754;8.868;2023-09-30T01:54:53;16.10;99.00
19180;DHT22;9722;48.754;8.868;2023-09-30T01:58:14;16.10;99.00
19180;DHT22;9722;48.754;8.868;2023-09-30T02:01:34;16.10;99.00
19180;DHT22;9722;48.754;8.868;2023-09-30T02:04:55;16.10;98.90
19180;DHT22;9722;48.754;8.868;2023-09-30T02:08:16;16.10;99.00
19180;DHT22;9722;48.754;8.868;2023-09-30T02:11:38;16.20;99.10
19180;DHT22;9722;48.754;8.868;2023-09-30T02:15:03;16.20;99.10
19180;DHT22;9722;48.754;8.868;2023-09-30T02:18:23;16.20;99.10
19180;DHT22;9722;48.754;8.868;2023-09-30T02:21:44;16.10;99.10
19180;DHT22;9722;48.754;8.868;2023-09-30T02:25:05;16.10;99.10
19180;DHT22;9722;48.754;8.868;2023-09-30T02:28:27;16.10;99.20
19180;DHT22;9722;48.754;8.868;2023-09-30T02:31:48;16.10;99.30
19180;DHT22;9722;48.754;8.868;2023-09-30T02:35:09;16.10;99.30
19180;DHT22;9722;48.754;8.868;2023-09-30T02:38:32;16.00;99.30
19180;DHT22;9722;48.754;8.868;2023-09-30T02:41:53;16.00;99.40
19180;DHT22;9722;48.754;8.868;2023-09-30T02:45:15;16.00;99.40
19180;DHT22;9722;48.754;8.868;2023-09-30T02:48:37;16.00;99.50
19180;DHT22;9722;48.754;8.868;2023-09-30T02:51:58;16.00;99.50
19180;DHT22;9722;48.754;8.868;2023-09-30T02:55:18;16.00;99.60
19180;DHT22;9722;48.754;8.868;2023-09-30T02:58:39;16.00;99.60
19180;DHT22;9722;48.754;8.868;2023-09-30T03:02:00;16.00;99.60
19180;DHT22;9722;48.754;8.868;2023-09-30T03:05:22;16.00;99.60
19180;DHT22;9722;48.754;8.868;2023-09-30T03:08:43;16.00;99.60
19180;DHT22;9722;48.754;8.868;2023-09-30T03:12:04;15.90;99.50
19180;DHT22;9722;48.754;8.868;2023-09-30T03:15:25;15.80;99.70
19180;DHT22;9722;48.754;8.868;2023-09-30T03:18:45;15.70;99.80
19180;DHT22;9722;48.754;8.868;2023-09-30T03:22:06;15.70;99.90
19180;DHT22;9722;48.754;8.868;2023-09-30T03:25:31;15.70;99.90
19180;DHT22;9722;48.754;8.868;2023-09-30T03:28:52;15.70;99.90
19180;DHT22;9722;48.754;8.868;2023-09-30T03:32:14;15.70;99.90
19180;DHT22;9722;48.754;8.868;2023-09-30T03:35:35;15.70;99.90
19180;DHT22;9722;48.754;8.868;2023-09-30T03:38:57;15.70;99.90
19180;DHT22;9722;48.754;8.868;2023-09-30T03:42:20;15.70;99.90
19180;DHT22;9722;48.754;8.868;2023-09-30T03:45:41;15.70;99.90
19180;DHT22;9722;48.754;8.868;2023-09-30T03:49:02;15.70;99.90
19180;DHT22;9722;48.754;8.868;2023-09-30T03:52:23;15.70;99.90
19180;DHT22;9722;48.754;8.868;2023-09-30T03:55:46;15.70;99.90
19180;DHT22;9722;48.754;8.868;2023-09-30T03:59:06;15.60;99.90
19180;DHT22;9722;48.754;8.868;2023-09-30T04:02:29;15.50;99.90
19180;DHT22;9722;48.754;8.868;2023-09-30T04:05:49;15.40;99.90
19180;DHT22;9722;48.754;8.868;2023-09-30T04:09:11;15.30;99.90
19180;DHT22;9722;48.754;8.868;2023-09-30T04:12:31;15.30;99.90
19180;DHT22;9722;48.754;8.868;2023-09-30T04:15:53;15.30;99.90
19180;DHT22;9722;48.754;8.868;2023-09-30T04:19:13;15.30;99.90
19180;DHT22;9722;48.754;8.868;2023-09-30T04:22:34;15.30;99.90
19180;DHT22;9722;48.754;8.868;2023-09-30T04:25:56;15.30;99.90
19180;DHT22;9722;48.754;8.868;2023-09-30T04:29:16;15.30;99.90
19180;DHT22;9722;48.754;8.868;2023-09-30T04:32:37;15.40;99.90
19180;DHT22;9722;48.754;8.868;2023-09-30T04:35:58;15.40;99.90
19180;DHT22;9722;48.754;8.868;2023-09-30T04:39:19;15.40;99.90
19180;DHT22;9722;48.754;8.868;2023-09-30T04:42:39;15.40;99.90
19180;DHT22;9722;48.754;8.868;2023-09-30T04:46:00;15.40;99.90
19180;DHT22;9722;48.754;8.868;2023-09-30T04:49:21;15.40;99.90
19180;DHT22;9722;48.754;8.868;2023-09-30T04:52:43;15.50;99.90
19180;DHT22;9722;48.754;8.868;2023-09-30T04:56:05;15.50;99.90
19180;DHT22;9722;48.754;8.868;2023-09-30T04:59:26;15.50;99.90
19180;DHT22;9722;48.754;8.868;2023-09-30T05:02:46;15.50;99.90
19180;DHT22;9722;48.754;8.868;2023-09-30T05:06:07;15.50;99.90
19180;DHT22;9722;48.754;8.868;2023-09-30T05:09:28;15.50;99.90
19180;DHT22;9722;48.754;8.868;2023-09-30T05:12:48;15.40;99.90
19180;DHT22;9722;48.754;8.868;2023-09-30T05:16:09;15.50;99.90
19180;DHT22;9722;48.754;8.868;2023-09-30T05:19:29;15.40;99.90
19180;DHT22;9722;48.754;8.868;2023-09-30T05:22:52;15.40;99.90
19180;DHT22;9722;48.754;8.868;2023-09-30T05:26:12;15.40;99.90
19180;DHT22;9722;48.754;8.868;2023-09-30T05:29:33;15.40;99.90
19180;DHT22;9722;48.754;8.868;2023-09-30T05:32:53;15.30;99.90
19180;DHT22;9722;48.754;8.868;2023-09-30T05:36:14;15.30;99.90
19180;DHT22;9722;48.754;8.868;2023-09-30T05:39:35;15.30;99.90
19180;DHT22;9722;48.754;8.868;2023-09-30T05:42:56;15.20;99.90
19180;DHT22;9722;48.754;8.868;2023-09-30T05:46:20;15.20;99.90
19180;DHT22;9722;48.754;8.868;2023-09-30T05:49:41;15.10;99.90
19180;DHT22;9722;48.754;8.868;2023-09-30T05:53:02;15.10;99.90
19180;DHT22;9722;48.754;8.868;2023-09-30T05:56:25;15.00;99.90
19180;DHT22;9722;48.754;8.868;2023-09-30T05:59:45;15.00;99.90
19180;DHT22;9722;48.754;8.868;2023-09-30T06:03:06;15.10;99.90
19180;DHT22;9722;48.754;8.868;2023-09-30T06:06:28;15.10;99.90
19180;DHT22;9722;48.754;8.868;2023-09-30T06:09:51;15.10;99.90
19180;DHT22;9722;48.754;8.868;2023-09-30T06:13:12;15.20;99.90
19180;DHT22;9722;48.754;8.868;2023-09-30T06:16:33;15.20;99.90
19180;DHT22;9722;48.754;8.868;2023-09-30T06:19:55;15.10;99.90
19180;DHT22;9722;48.754;8.868;2023-09-30T06:23:15;15.10;99.90
19180;DHT22;9722;48.754;8.868;2023-09-30T06:26:36;15.10;99.90
19180;DHT22;9722;48.754;8.868;2023-09-30T06:29:57;15.20;99.90
19180;DHT22;9722;48.754;8.868;2023-09-30T06:33:17;15.40;99.90
19180;DHT22;9722;48.754;8.868;2023-09-30T06:36:38;15.50;99.90
19180;DHT22;9722;48.754;8.868;2023-09-30T06:39:58;15.60;99.90
19180;DHT22;9722;48.754;8.868;2023-09-30T06:43:20;15.70;99.90
19180;DHT22;9722;48.754;8.868;2023-09-30T06:46:40;15.90;99.90
19180;DHT22;9722;48.754;8.868;2023-09-30T06:50:01;16.20;99.90
19180;DHT22;9722;48.754;8.868;2023-09-30T06:53:27;16.50;99.90
19180;DHT22;9722;48.754;8.868;2023-09-30T06:56:48;16.90;99.90
19180;DHT22;9722;48.754;8.868;2023-09-30T07:00:13;17.10;99.90
19180;DHT22;9722;48.754;8.868;2023-09-30T07:03:34;17.30;99.70
19180;DHT22;9722;48.754;8.868;2023-09-30T07:06:54;17.30;99.30
19180;DHT22;9722;48.754;8.868;2023-09-30T07:10:15;17.50;99.00
19180;DHT22;9722;48.754;8.868;2023-09-30T07:13:35;17.80;98.30
19180;DHT22;9722;48.754;8.868;2023-09-30T07:16:56;18.10;97.50
19180;DHT22;9722;48.754;8.868;2023-09-30T07:20:16;18.60;96.70
19180;DHT22;9722;48.754;8.868;2023-09-30T07:23:38;19.00;95.80
19180;DHT22;9722;48.754;8.868;2023-09-30T07:26:59;19.50;94.90
19180;DHT22;9722;48.754;8.868;2023-09-30T07:30:19;19.80;94.00
19180;DHT22;9722;48.754;8.868;2023-09-30T07:33:40;20.20;93.10
19180;DHT22;9722;48.754;8.868;2023-09-30T07:37:00;20.80;91.90
19180;DHT22;9722;48.754;8.868;2023-09-30T07:40:21;21.50;90.50
19180;DHT22;9722;48.754;8.868;2023-09-30T07:43:41;22.00;88.00
19180;DHT22;9722;48.754;8.868;2023-09-30T07:47:05;22.50;85.10
19180;DHT22;9722;48.754;8.868;2023-09-30T07:50:30;22.90;81.70
19180;DHT22;9722;48.754;8.868;2023-09-30T07:53:50;22.80;80.30
19180;DHT22;9722;48.754;8.868;2023-09-30T07:57:11;22.90;80.00
19180;DHT22;9722;48.754;8.868;2023-09-30T08:00:31;23.00;78.50
19180;DHT22;9722;48.754;8.868;2023-09-30T08:03:54;23.10;77.60
19180;DHT22;9722;48.754;8.868;2023-09-30T08:07:14;22.90;76.60
19180;DHT22;9722;48.754;8.868;2023-09-30T08:10:35;22.60;76.70
19180;DHT22;9722;48.754;8.868;2023-09-30T08:13:56;22.30;77.30
19180;DHT22;9722;48.754;8.868;2023-09-30T08:17:19;22.00;77.70
19180;DHT22;9722;48.754;8.868;2023-09-30T08:20:39;21.80;78.20
19180;DHT22;9722;48.754;8.868;2023-09-30T08:24:01;21.70;78.90
19180;DHT22;9722;48.754;8.868;2023-09-30T08:27:22;22.20;78.00
19180;DHT22;9722;48.754;8.868;2023-09-30T08:30:44;22.70;76.40
19180;DHT22;9722;48.754;8.868;2023-09-30T08:34:05;23.70;73.50
19180;DHT22;9722;48.754;8.868;2023-09-30T08:37:25;24.50;70.10
19180;DHT22;9722;48.754;8.868;2023-09-30T08:40:47;25.20;66.90
19180;DHT22;9722;48.754;8.868;2023-09-30T08:44:08;25.90;62.70
19180;DHT22;9722;48.754;8.868;2023-09-30T08:47:29;26.70;60.40
19180;DHT22;9722;48.754;8.868;2023-09-30T08:50:51;27.30;58.70
19180;DHT22;9722;48.754;8.868;2023-09-30T08:54:12;28.10;56.90
19180;DHT22;9722;48.754;8.868;2023-09-30T08:57:37;28.80;55.10
19180;DHT22;9722;48.754;8.868;2023-09-30T09:00:59;29.40;52.80
19180;DHT22;9722;48.754;8.868;2023-09-30T09:04:20;29.50;51.10
19180;DHT22;9722;48.754;8.868;2023-09-30T09:07:40;29.50;51.30
19180;DHT22;9722;48.754;8.868;2023-09-30T09:11:03;29.50;50.30
19180;DHT22;9722;48.754;8.868;2023-09-30T09:14:39;29.70;50.00
19180;DHT22;9722;48.754;8.868;2023-09-30T09:18:00;29.90;47.80
19180;DHT22;9722;48.754;8.868;2023-09-30T09:21:21;30.00;48.30
19180;DHT22;9722;48.754;8.868;2023-09-30T09:24:46;30.40;48.20
19180;DHT22;9722;48.754;8.868;2023-09-30T09:28:08;31.10;47.80
19180;DHT22;9722;48.754;8.868;2023-09-30T09:31:30;31.50;45.80
19180;DHT22;9722;48.754;8.868;2023-09-30T09:35:00;31.60;45.20
19180;DHT22;9722;48.754;8.868;2023-09-30T09:38:22;31.90;44.60
19180;DHT22;9722;48.754;8.868;2023-09-30T09:41:55;32.20;43.80
19180;DHT22;9722;48.754;8.868;2023-09-30T09:45:18;32.50;43.10
19180;DHT22;9722;48.754;8.868;2023-09-30T09:48:38;32.80;42.50
19180;DHT22;9722;48.754;8.868;2023-09-30T09:52:00;33.20;42.10
19180;DHT22;9722;48.754;8.868;2023-09-30T09:55:23;33.40;41.30
19180;DHT22;9722;48.754;8.868;2023-09-30T09:58:44;33.40;40.50
19180;DHT22;9722;48.754;8.868;2023-09-30T10:02:11;33.60;40.60
19180;DHT22;9722;48.754;8.868;2023-09-30T10:05:34;34.00;40.00
19180;DHT22;9722;48.754;8.868;2023-09-30T10:08:56;34.40;40.00
19180;DHT22;9722;48.754;8.868;2023-09-30T10:12:18;34.70;39.00
19180;DHT22;9722;48.754;8.868;2023-09-30T10:15:39;35.30;38.30
19180;DHT22;9722;48.754;8.868;2023-09-30T10:19:17;35.70;37.60
19180;DHT22;9722;48.754;8.868;2023-09-30T10:22:38;36.20;36.70
19180;DHT22;9722;48.754;8.868;2023-09-30T10:29:41;35.40;36.20
19180;DHT22;9722;48.754;8.868;2023-09-30T10:33:07;34.00;37.20
19180;DHT22;9722;48.754;8.868;2023-09-30T10:36:32;32.70;38.70
19180;DHT22;9722;48.754;8.868;2023-09-30T10:39:56;31.80;39.50
19180;DHT22;9722;48.754;8.868;2023-09-30T10:43:36;31.10;40.20
19180;DHT22;9722;48.754;8.868;2023-09-30T10:46:58;30.50;40.10
19180;DHT22;9722;48.754;8.868;2023-09-30T10:50:51;29.90;40.80
19180;DHT22;9722;48.754;8.868;2023-09-30T10:54:13;29.50;42.30
19180;DHT22;9722;48.754;8.868;2023-09-30T10:57:34;29.50;42.60
19180;DHT22;9722;48.754;8.868;2023-09-30T11:00:55;29.40;42.60
19180;DHT22;9722;48.754;8.868;2023-09-30T11:04:15;28.90;42.60
19180;DHT22;9722;48.754;8.868;2023-09-30T11:07:36;28.20;43.70
19180;DHT22;9722;48.754;8.868;2023-09-30T11:10:58;27.90;44.70
19180;DHT22;9722;48.754;8.868;2023-09-30T11:14:26;27.90;44.60
19180;DHT22;9722;48.754;8.868;2023-09-30T11:17:48;27.90;44.50
19180;DHT22;9722;48.754;8.868;2023-09-30T11:21:10;27.60;44.70
19180;DHT22;9722;48.754;8.868;2023-09-30T11:24:35;27.30;45.30
19180;DHT22;9722;48.754;8.868;2023-09-30T11:28:21;27.10;46.20
19180;DHT22;9722;48.754;8.868;2023-09-30T11:31:46;27.00;46.30
19180;DHT22;9722;48.754;8.868;2023-09-30T11:35:22;26.80;46.00
19180;DHT22;9722;48.754;8.868;2023-09-30T11:38:47;26.60;46.20
19180;DHT22;9722;48.754;8.868;2023-09-30T11:42:17;26.50;46.10
19180;DHT22;9722;48.754;8.868;2023-09-30T11:45:39;26.30;46.60
19180;DHT22;9722;48.754;8.868;2023-09-30T11:49:04;26.10;47.10
19180;DHT22;9722;48.754;8.868;2023-09-30T11:52:28;26.00;47.50
19180;DHT22;9722;48.754;8.868;2023-09-30T11:55:49;26.20;48.20
19180;DHT22;9722;48.754;8.868;2023-09-30T11:59:09;27.60;47.60
19180;DHT22;9722;48.754;8.868;2023-09-30T12:02:33;28.70;46.20
19180;DHT22;9722;48.754;8.868;2023-09-30T12:05:55;29.30;45.10
19180;DHT22;9722;48.754;8.868;2023-09-30T12:09:16;29.50;44.40
19180;DHT22;9722;48.754;8.868;2023-09-30T12:12:42;29.40;44.10
19180;DHT22;9722;48.754;8.868;2023-09-30T12:16:03;29.20;44.00
19180;DHT22;9722;48.754;8.868;2023-09-30T12:19:24;28.90;44.20
19180;DHT22;9722;48.754;8.868;2023-09-30T12:22:45;28.70;44.50
19180;DHT22;9722;48.754;8.868;2023-09-30T12:26:05;29.60;44.20
19180;DHT22;9722;48.754;8.868;2023-09-30T12:29:26;31.20;42.60
19180;DHT22;9722;48.754;8.868;2023-09-30T12:32:47;32.60;40.20
19180;DHT22;9722;48.754;8.868;2023-09-30T12:36:07;34.00;38.60
19180;DHT22;9722;48.754;8.868;2023-09-30T12:39:28;35.30;36.90
19180;DHT22;9722;48.754;8.868;2023-09-30T12:42:51;36.60;35.50
19180;DHT22;9722;48.754;8.868;2023-09-30T12:46:11;37.20;34.50
19180;DHT22;9722;48.754;8.868;2023-09-30T12:49:33;37.20;33.70
19180;DHT22;9722;48.754;8.868;2023-09-30T12:52:54;36.90;33.40
19180;DHT22;9722;48.754;8.868;2023-09-30T12:56:14;36.00;33.40
19180;DHT22;9722;48.754;8.868;2023-09-30T12:59:35;34.80;34.50
19180;DHT22;9722;48.754;8.868;2023-09-30T13:02:56;33.60;35.90
19180;DHT22;9722;48.754;8.868;2023-09-30T13:06:17;32.50;37.60
19180;DHT22;9722;48.754;8.868;2023-09-30T13:09:39;31.50;39.00
19180;DHT22;9722;48.754;8.868;2023-09-30T13:12:59;30.50;40.10
19180;DHT22;9722;48.754;8.868;2023-09-30T13:16:20;29.90;41.30
19180;DHT22;9722;48.754;8.868;2023-09-30T13:19:40;29.30;42.10
19180;DHT22;9722;48.754;8.868;2023-09-30T13:23:02;28.70;42.50
19180;DHT22;9722;48.754;8.868;2023-09-30T13:26:23;28.30;43.30
19180;DHT22;9722;48.754;8.868;2023-09-30T13:29:45;28.10;43.50
19180;DHT22;9722;48.754;8.868;2023-09-30T13:33:05;28.00;43.80
19180;DHT22;9722;48.754;8.868;2023-09-30T13:36:26;28.50;43.60
19180;DHT22;9722;48.754;8.868;2023-09-30T13:39:47;29.70;42.80
19180;DHT22;9722;48.754;8.868;2023-09-30T13:43:07;31.20;41.30
19180;DHT22;9722;48.754;8.868;2023-09-30T13:46:28;32.50;39.80
19180;DHT22;9722;48.754;8.868;2023-09-30T13:49:49;33.60;38.80
19180;DHT22;9722;48.754;8.868;2023-09-30T13:53:09;34.20;37.80
19180;DHT22;9722;48.754;8.868;2023-09-30T13:56:30;34.60;37.00
19180;DHT22;9722;48.754;8.868;2023-09-30T13:59:50;34.90;36.40
19180;DHT22;9722;48.754;8.868;2023-09-30T14:03:11;34.80;36.30
19180;DHT22;9722;48.754;8.868;2023-09-30T14:06:31;34.50;36.30
19180;DHT22;9722;48.754;8.868;2023-09-30T14:09:53;34.10;36.40
19180;DHT22;9722;48.754;8.868;2023-09-30T14:13:13;33.60;36.90
19180;DHT22;9722;48.754;8.868;2023-09-30T14:16:35;33.20;37.30
19180;DHT22;9722;48.754;8.868;2023-09-30T14:19:57;32.70;37.90
19180;DHT22;9722;48.754;8.868;2023-09-30T14:23:18;32.40;38.00
19180;DHT22;9722;48.754;8.868;2023-09-30T14:26:38;32.20;39.10
19180;DHT22;9722;48.754;8.868;2023-09-30T14:29:59;31.80;38.90
19180;DHT22;9722;48.754;8.868;2023-09-30T14:33:20;31.10;39.20
19180;DHT22;9722;48.754;8.868;2023-09-30T14:36:41;30.40;40.40
19180;DHT22;9722;48.754;8.868;2023-09-30T14:40:02;30.00;41.50
19180;DHT22;9722;48.754;8.868;2023-09-30T14:43:30;29.60;41.80
19180;DHT22;9722;48.754;8.868;2023-09-30T14:46:51;29.40;42.20
19180;DHT22;9722;48.754;8.868;2023-09-30T14:50:11;29.30;42.30
19180;DHT22;9722;48.754;8.868;2023-09-30T14:53:32;29.10;42.70
19180;DHT22;9722;48.754;8.868;2023-09-30T14:56:52;28.60;42.90
19180;DHT22;9722;48.754;8.868;2023-09-30T15:00:13;28.20;43.50
19180;DHT22;9722;48.754;8.868;2023-09-30T15:03:34;27.70;44.20
19180;DHT22;9722;48.754;8.868;2023-09-30T15:06:57;27.40;45.00
19180;DHT22;9722;48.754;8.868;2023-09-30T15:10:17;27.00;45.40
19180;DHT22;9722;48.754;8.868;2023-09-30T15:13:39;26.60;46.20
19180;DHT22;9722;48.754;8.868;2023-09-30T15:16:59;26.20;46.80
19180;DHT22;9722;48.754;8.868;2023-09-30T15:20:20;25.90;47.50
19180;DHT22;9722;48.754;8.868;2023-09-30T15:23:41;25.60;47.90
19180;DHT22;9722;48.754;8.868;2023-09-30T15:27:02;25.40;48.60
19180;DHT22;9722;48.754;8.868;2023-09-30T15:30:23;25.10;49.10
19180;DHT22;9722;48.754;8.868;2023-09-30T15:33:43;25.00;49.60
19180;DHT22;9722;48.754;8.868;2023-09-30T15:37:04;24.90;49.80
19180;DHT22;9722;48.754;8.868;2023-09-30T15:40:25;24.70;50.00
19180;DHT22;9722;48.754;8.868;2023-09-30T15:43:45;24.50;50.00
19180;DHT22;9722;48.754;8.868;2023-09-30T15:47:06;24.30;50.40
19180;DHT22;9722;48.754;8.868;2023-09-30T15:50:27;24.10;51.00
19180;DHT22;9722;48.754;8.868;2023-09-30T15:53:48;23.90;51.30
19180;DHT22;9722;48.754;8.868;2023-09-30T15:57:08;23.70;51.70
19180;DHT22;9722;48.754;8.868;2023-09-30T16:00:28;23.50;52.10
19180;DHT22;9722;48.754;8.868;2023-09-30T16:03:49;23.30;52.20
19180;DHT22;9722;48.754;8.868;2023-09-30T16:07:10;23.20;52.50
19180;DHT22;9722;48.754;8.868;2023-09-30T16:10:32;23.00;52.90
19180;DHT22;9722;48.754;8.868;2023-09-30T16:13:53;22.80;53.20
19180;DHT22;9722;48.754;8.868;2023-09-30T16:17:14;22.60;54.00
19180;DHT22;9722;48.754;8.868;2023-09-30T16:20:34;22.40;53.90
19180;DHT22;9722;48.754;8.868;2023-09-30T16:23:55;22.20;54.30
19180;DHT22;9722;48.754;8.868;2023-09-30T16:27:15;21.90;54.60
19180;DHT22;9722;48.754;8.868;2023-09-30T16:30:36;21.70;55.10
19180;DHT22;9722;48.754;8.868;2023-09-30T16:33:58;21.50;55.60
19180;DHT22;9722;48.754;8.868;2023-09-30T16:37:19;21.30;56.00
19180;DHT22;9722;48.754;8.868;2023-09-30T16:40:39;21.00;56.30
19180;DHT22;9722;48.754;8.868;2023-09-30T16:43:59;20.80;56.40
19180;DHT22;9722;48.754;8.868;2023-09-30T16:47:20;20.60;57.10
19180;DHT22;9722;48.754;8.868;2023-09-30T16:50:44;20.40;57.50
19180;DHT22;9722;48.754;8.868;2023-09-30T16:54:05;20.20;58.00
19180;DHT22;9722;48.754;8.868;2023-09-30T16:57:25;20.00;58.50
19180;DHT22;9722;48.754;8.868;2023-09-30T17:00:46;19.80;58.60
19180;DHT22;9722;48.754;8.868;2023-09-30T17:04:07;19.60;58.90
19180;DHT22;9722;48.754;8.868;2023-09-30T17:07:27;19.40;59.30
19180;DHT22;9722;48.754;8.868;2023-09-30T17:10:48;19.30;59.80
19180;DHT22;9722;48.754;8.868;2023-09-30T17:14:10;19.10;60.00
19180;DHT22;9722;48.754;8.868;2023-09-30T17:17:31;18.90;60.50
19180;DHT22;9722;48.754;8.868;2023-09-30T17:20:53;18.80;61.20
19180;DHT22;9722;48.754;8.868;2023-09-30T17:24:15;18.70;62.00
19180;DHT22;9722;48.754;8.868;2023-09-30T17:27:35;18.50;62.80
19180;DHT22;9722;48.754;8.868;2023-09-30T17:31:01;18.40;63.60
19180;DHT22;9722;48.754;8.868;2023-09-30T17:34:24;18.20;64.40
19180;DHT22;9722;48.754;8.868;2023-09-30T17:37:45;18.00;64.80
19180;DHT22;9722;48.754;8.868;2023-09-30T17:41:07;17.80;65.40
19180;DHT22;9722;48.754;8.868;2023-09-30T17:44:28;17.70;66.10
19180;DHT22;9722;48.754;8.868;2023-09-30T17:47:48;17.70;67.00
19180;DHT22;9722;48.754;8.868;2023-09-30T17:51:16;17.50;67.40
19180;DHT22;9722;48.754;8.868;2023-09-30T17:54:42;17.40;68.40
19180;DHT22;9722;48.754;8.868;2023-09-30T17:58:03;17.30;69.00
19180;DHT22;9722;48.754;8.868;2023-09-30T18:01:24;17.20;70.00
19180;DHT22;9722;48.754;8.868;2023-09-30T18:04:45;17.10;70.50
19180;DHT22;9722;48.754;8.868;2023-09-30T18:08:07;16.90;71.30
19180;DHT22;9722;48.754;8.868;2023-09-30T18:11:27;16.80;72.30
19180;DHT22;9722;48.754;8.868;2023-09-30T18:14:48;16.60;73.40
19180;DHT22;9722;48.754;8.868;2023-09-30T18:18:09;16.40;74.40
19180;DHT22;9722;48.754;8.868;2023-09-30T18:21:29;16.20;75.30
19180;DHT22;9722;48.754;8.868;2023-09-30T18:24:50;16.10;76.30
19180;DHT22;9722;48.754;8.868;2023-09-30T18:28:10;15.90;77.10
19180;DHT22;9722;48.754;8.868;2023-09-30T18:31:31;15.80;78.10
19180;DHT22;9722;48.754;8.868;2023-09-30T18:34:51;15.70;79.10
19180;DHT22;9722;48.754;8.868;2023-09-30T18:38:13;15.50;80.10
19180;DHT22;9722;48.754;8.868;2023-09-30T18:41:34;15.40;81.20
19180;DHT22;9722;48.754;8.868;2023-09-30T18:44:54;15.20;82.00
19180;DHT22;9722;48.754;8.868;2023-09-30T18:48:15;15.10;83.00
19180;DHT22;9722;48.754;8.868;2023-09-30T18:51:36;14.90;84.00
19180;DHT22;9722;48.754;8.868;2023-09-30T18:54:57;14.80;84.80
19180;DHT22;9722;48.754;8.868;2023-09-30T18:58:17;14.70;85.30
19180;DHT22;9722;48.754;8.868;2023-09-30T19:01:38;14.60;86.30
19180;DHT22;9722;48.754;8.868;2023-09-30T19:04:58;14.50;87.00
19180;DHT22;9722;48.754;8.868;2023-09-30T19:08:20;14.40;87.60
19180;DHT22;9722;48.754;8.868;2023-09-30T19:11:43;14.30;88.60
19180;DHT22;9722;48.754;8.868;2023-09-30T19:15:06;14.20;89.30
19180;DHT22;9722;48.754;8.868;2023-09-30T19:18:26;14.20;90.00
19180;DHT22;9722;48.754;8.868;2023-09-30T19:21:47;14.10;90.20
19180;DHT22;9722;48.754;8.868;2023-09-30T19:25:08;14.00;90.50
19180;DHT22;9722;48.754;8.868;2023-09-30T19:28:29;14.00;90.90
19180;DHT22;9722;48.754;8.868;2023-09-30T19:31:49;13.90;91.00
19180;DHT22;9722;48.754;8.868;2023-09-30T19:35:10;13.80;91.30
19180;DHT22;9722;48.754;8.868;2023-09-30T19:38:31;13.80;91.50
19180;DHT22;9722;48.754;8.868;2023-09-30T19:41:52;13.60;91.60
19180;DHT22;9722;48.754;8.868;2023-09-30T19:45:12;13.60;91.90
19180;DHT22;9722;48.754;8.868;2023-09-30T19:48:33;13.50;92.10
19180;DHT22;9722;48.754;8.868;2023-09-30T19:51:53;13.40;92.40
19180;DHT22;9722;48.754;8.868;2023-09-30T19:55:15;13.30;92.60
19180;DHT22;9722;48.754;8.868;2023-09-30T19:58:36;13.20;92.90
19180;DHT22;9722;48.754;8.868;2023-09-30T20:01:56;13.10;93.20
19180;DHT22;9722;48.754;8.868;2023-09-30T20:05:17;13.00;93.40
19180;DHT22;9722;48.754;8.868;2023-09-30T20:08:38;12.90;93.70
19180;DHT22;9722;48.754;8.868;2023-09-30T20:11:58;12.90;93.90
19180;DHT22;9722;48.754;8.868;2023-09-30T20:15:22;12.80;94.10
19180;DHT22;9722;48.754;8.868;2023-09-30T20:18:44;12.70;94.70
19180;DHT22;9722;48.754;8.868;2023-09-30T20:22:04;12.60;94.50
19180;DHT22;9722;48.754;8.868;2023-09-30T20:25:25;12.50;94.80
19180;DHT22;9722;48.754;8.868;2023-09-30T20:28:50;12.40;95.20
19180;DHT22;9722;48.754;8.868;2023-09-30T20:32:10;12.40;95.60
19180;DHT22;9722;48.754;8.868;2023-09-30T20:35:31;12.30;95.70
19180;DHT22;9722;48.754;8.868;2023-09-30T20:38:55;12.20;95.90
19180;DHT22;9722;48.754;8.868;2023-09-30T20:42:15;12.20;96.10
19180;DHT22;9722;48.754;8.868;2023-09-30T20:45:37;12.10;96.40
19180;DHT22;9722;48.754;8.868;2023-09-30T20:48:58;12.00;96.70
19180;DHT22;9722;48.754;8.868;2023-09-30T20:52:19;11.90;96.90
19180;DHT22;9722;48.754;8.868;2023-09-30T20:55:39;11.90;97.40
19180;DHT22;9722;48.754;8.868;2023-09-30T20:59:00;11.90;98.00
19180;DHT22;9722;48.754;8.868;2023-09-30T21:02:21;11.80;98.30
19180;DHT22;9722;48.754;8.868;2023-09-30T21:05:41;11.80;98.60
19180;DHT22;9722;48.754;8.868;2023-09-30T21:09:03;11.80;98.90
19180;DHT22;9722;48.754;8.868;2023-09-30T21:12:23;11.80;99.00
19180;DHT22;9722;48.754;8.868;2023-09-30T21:15:44;11.70;99.00
19180;DHT22;9722;48.754;8.868;2023-09-30T21:19:05;11.70;99.10
19180;DHT22;9722;48.754;8.868;2023-09-30T21:22:26;11.70;99.20
19180;DHT22;9722;48.754;8.868;2023-09-30T21:25:47;11.60;99.20
19180;DHT22;9722;48.754;8.868;2023-09-30T21:29:08;11.60;99.30
19180;DHT22;9722;48.754;8.868;2023-09-30T21:32:29;11.60;99.50
19180;DHT22;9722;48.754;8.868;2023-09-30T21:35:58;11.50;99.60